createdAt,value
2023-01-25T10:33:56.679Z,23.30
2023-01-25T10:37:12.673Z,20.10
2023-01-25T10:40:24.185Z,23.90
2023-01-25T10:43:30.806Z,20.70
2023-01-25T10:46:37.869Z,18.30
2023-01-25T10:49:48.720Z,18.00
2023-01-25T10:53:01.514Z,17.90
2023-01-25T10:56:23.932Z,18.30
2023-01-25T10:59:31.410Z,17.50
2023-01-25T11:02:46.040Z,17.50
2023-01-25T11:05:56.745Z,18.40
2023-01-25T11:09:03.335Z,17.40
2023-01-25T11:12:19.839Z,15.40
2023-01-25T11:15:29.178Z,15.90
2023-01-25T11:18:36.468Z,16.00
2023-01-25T11:21:55.032Z,15.50
2023-01-25T11:25:26.486Z,16.50
2023-01-25T11:28:32.437Z,17.30
2023-01-25T11:31:42.027Z,17.60
2023-01-25T11:34:48.609Z,18.20
2023-01-25T11:38:13.930Z,18.30
2023-01-25T11:41:28.005Z,17.60
2023-01-25T11:45:03.479Z,17.10
2023-01-25T11:48:26.777Z,17.50
2023-01-25T11:51:41.428Z,17.30
2023-01-25T11:54:54.900Z,16.50
2023-01-25T11:58:13.703Z,15.90
2023-01-25T12:01:28.157Z,18.40
2023-01-25T12:05:02.279Z,18.10
2023-01-25T12:08:21.635Z,19.60
2023-01-25T12:11:42.133Z,23.70
2023-01-25T12:15:08.489Z,17.30
2023-01-25T12:18:41.218Z,25.40
2023-01-25T12:22:03.819Z,19.60
2023-01-25T12:25:22.797Z,18.70
2023-01-25T12:28:35.127Z,19.50
2023-01-25T12:31:51.575Z,17.10
2023-01-25T12:35:05.531Z,16.80
2023-01-25T12:38:17.233Z,18.60
2023-01-25T12:41:32.610Z,19.10
2023-01-25T12:44:43.201Z,16.30
2023-01-25T12:47:53.642Z,16.20
2023-01-25T12:51:01.041Z,16.50
2023-01-25T12:54:14.152Z,20.10
2023-01-25T12:57:30.451Z,19.40
2023-01-25T13:00:45.830Z,22.00
2023-01-25T13:04:04.807Z,21.40
2023-01-25T13:07:19.232Z,25.60
2023-01-25T13:10:30.791Z,21.90
2023-01-25T13:13:37.143Z,20.00
2023-01-25T13:19:50.525Z,20.20
2023-01-25T13:23:01.466Z,22.30
2023-01-25T13:26:48.615Z,21.50
2023-01-25T13:30:03.454Z,21.50
2023-01-25T13:33:09.567Z,22.80
2023-01-25T13:36:47.503Z,22.40
2023-01-25T13:39:55.742Z,23.00
2023-01-25T13:43:07.675Z,22.00
2023-01-25T13:46:17.198Z,21.20
2023-01-25T13:49:29.659Z,21.40
2023-01-25T13:52:35.930Z,22.00
2023-01-25T13:55:44.316Z,22.20
2023-01-25T13:58:50.596Z,22.50
2023-01-25T14:05:02.103Z,20.30
2023-01-25T14:08:14.268Z,21.80
2023-01-25T14:11:23.936Z,22.40
2023-01-25T14:14:33.141Z,20.30
2023-01-25T14:17:39.429Z,21.10
2023-01-25T14:23:52.359Z,18.80
2023-01-25T14:26:58.895Z,22.00
2023-01-25T14:30:07.474Z,20.70
2023-01-25T14:33:23.315Z,18.30
2023-01-25T14:36:34.568Z,20.50
2023-01-25T14:39:40.856Z,23.90
2023-01-25T14:42:47.191Z,19.90
2023-01-25T14:49:18.037Z,16.80
2023-01-25T14:52:28.719Z,14.50
2023-01-25T14:55:34.928Z,15.60
2023-01-25T14:58:45.316Z,14.00
2023-01-25T15:01:55.828Z,14.80
2023-01-25T15:05:14.944Z,18.80
2023-01-25T15:08:31.333Z,16.70
2023-01-25T15:11:45.537Z,16.80
2023-01-25T15:14:53.546Z,17.10
2023-01-25T15:18:00.266Z,15.90
2023-01-25T15:21:06.728Z,16.00
2023-01-25T15:24:15.252Z,18.90
2023-01-25T15:27:25.216Z,20.10
2023-01-25T15:30:31.550Z,19.00
2023-01-25T15:36:42.181Z,21.70
2023-01-25T15:39:48.368Z,22.50
2023-01-25T15:42:55.697Z,22.90
2023-01-25T15:46:02.765Z,21.80
2023-01-25T15:49:10.093Z,22.60
2023-01-25T15:52:16.564Z,21.90
2023-01-25T15:55:23.029Z,22.00
2023-01-25T15:58:31.861Z,22.50
2023-01-25T16:01:38.173Z,24.50
2023-01-25T16:07:49.834Z,26.50
2023-01-25T16:10:56.110Z,26.20
2023-01-25T16:17:07.667Z,29.20
2023-01-25T16:20:21.062Z,31.50
2023-01-25T16:23:27.252Z,32.10
2023-01-25T16:26:33.808Z,29.20
2023-01-25T16:29:39.843Z,26.20
2023-01-25T16:32:46.752Z,50.60
2023-01-25T16:36:12.361Z,36.60
2023-01-25T16:39:20.718Z,28.10
2023-01-25T16:42:27.056Z,27.00
2023-01-25T16:48:38.371Z,47.70
2023-01-25T16:54:49.046Z,33.80
2023-01-25T17:00:59.619Z,32.00
2023-01-25T17:04:05.967Z,26.50
2023-01-25T17:10:19.393Z,29.40
2023-01-25T17:13:25.809Z,30.70
2023-01-25T17:16:33.603Z,28.30
2023-01-25T17:19:39.885Z,29.30
2023-01-25T17:25:56.550Z,25.20
2023-01-25T17:29:03.495Z,26.20
2023-01-25T17:32:09.607Z,24.10
2023-01-25T17:35:15.952Z,23.70
2023-01-25T17:41:26.700Z,28.60
2023-01-25T17:44:33.128Z,27.30
2023-01-25T17:47:39.448Z,26.10
2023-01-25T17:53:50.434Z,31.20
2023-01-25T17:56:56.738Z,30.80
2023-01-25T18:00:03.287Z,30.50
2023-01-25T18:03:10.052Z,31.40
2023-01-25T18:06:19.116Z,30.50
2023-01-25T18:09:25.890Z,29.30
2023-01-25T18:12:32.129Z,28.30
2023-01-25T18:15:38.369Z,30.40
2023-01-25T18:21:49.898Z,23.70
2023-01-25T18:28:00.728Z,28.00
2023-01-25T18:34:12.500Z,30.60
2023-01-25T18:37:20.477Z,30.90
2023-01-25T18:40:27.084Z,26.60
2023-01-25T18:43:33.557Z,21.00
2023-01-25T18:46:40.739Z,21.40
2023-01-25T18:49:47.371Z,23.60
2023-01-25T18:52:54.349Z,19.90
2023-01-25T18:56:07.248Z,19.20
2023-01-25T18:59:13.532Z,20.50
2023-01-25T19:05:24.296Z,22.00
2023-01-25T19:08:32.502Z,21.20
2023-01-25T19:11:38.843Z,23.00
2023-01-25T19:17:49.622Z,21.00
2023-01-25T19:20:55.608Z,25.80
2023-01-25T19:24:02.142Z,24.30
2023-01-25T19:27:08.443Z,23.20
2023-01-25T19:33:20.227Z,24.90
2023-01-25T19:36:26.720Z,25.40
2023-01-25T19:39:32.987Z,27.20
2023-01-25T19:42:39.269Z,28.40
2023-01-25T19:48:51.808Z,26.80
2023-01-25T19:51:58.013Z,26.70
2023-01-25T19:55:04.387Z,23.70
2023-01-25T20:01:17.369Z,25.10
2023-01-25T20:04:25.135Z,26.40
2023-01-25T20:07:32.517Z,22.50
2023-01-25T20:10:38.782Z,26.90
2023-01-25T20:16:52.644Z,24.90
2023-01-25T20:19:58.986Z,23.40
2023-01-25T20:26:13.789Z,24.60
2023-01-25T20:29:21.604Z,24.70
2023-01-25T20:32:33.138Z,23.80
2023-01-25T20:35:39.604Z,22.20
2023-01-25T20:38:46.385Z,23.40
2023-01-25T20:41:53.765Z,22.80
2023-01-25T20:44:59.967Z,23.50
2023-01-25T20:48:06.611Z,23.80
2023-01-25T20:51:14.630Z,23.70
2023-01-25T20:54:21.789Z,24.00
2023-01-25T20:57:27.768Z,25.10
2023-01-25T21:00:34.063Z,24.50
2023-01-25T21:06:44.817Z,22.70
2023-01-25T21:09:51.069Z,23.70
2023-01-25T21:16:03.615Z,24.40
2023-01-25T21:19:10.008Z,25.10
2023-01-25T21:25:20.830Z,24.30
2023-01-25T21:28:27.260Z,25.40
2023-01-25T21:31:36.079Z,24.10
2023-01-25T21:34:42.564Z,27.20
2023-01-25T21:37:50.397Z,23.50
2023-01-25T21:41:03.006Z,26.10
2023-01-25T21:44:26.960Z,26.90
2023-01-25T21:47:34.043Z,27.80
2023-01-25T21:50:59.151Z,24.50
2023-01-25T21:54:05.504Z,25.60
2023-01-25T22:00:20.519Z,25.50
2023-01-25T22:03:26.900Z,25.20
2023-01-25T22:09:37.770Z,41.40
2023-01-25T22:15:48.582Z,28.70
2023-01-25T22:21:59.217Z,27.40
2023-01-25T22:25:05.731Z,25.20
2023-01-25T22:28:17.317Z,24.90
2023-01-25T22:31:25.088Z,26.40
2023-01-25T22:34:31.512Z,25.30
2023-01-25T22:40:44.425Z,23.60
2023-01-25T22:46:55.024Z,27.10
2023-01-25T22:53:05.822Z,27.30
2023-01-25T22:59:19.414Z,26.50
2023-01-25T23:02:25.546Z,27.60
2023-01-25T23:05:32.076Z,31.10
2023-01-25T23:08:40.267Z,34.30
2023-01-25T23:11:46.233Z,29.90
2023-01-25T23:14:55.298Z,28.80
2023-01-25T23:18:18.972Z,27.70
2023-01-25T23:21:27.362Z,25.30
2023-01-25T23:24:33.700Z,33.90
2023-01-25T23:30:44.610Z,31.60
2023-01-25T23:33:52.232Z,25.50
2023-01-25T23:36:58.539Z,25.50
2023-01-25T23:43:09.385Z,34.30
2023-01-25T23:49:21.732Z,20.80
2023-01-25T23:52:28.879Z,20.00
2023-01-25T23:55:35.198Z,21.70
